createdAt,value
2018-07-21T00:00:10.916Z,59.37
2018-07-21T00:01:17.327Z,59.39
2018-07-21T00:02:24.151Z,59.43
2018-07-21T00:03:30.895Z,59.43
2018-07-21T00:04:37.990Z,59.41
2018-07-21T00:05:44.841Z,59.50
2018-07-21T00:06:51.898Z,59.52
2018-07-21T00:07:58.643Z,59.57
2018-07-21T00:09:05.403Z,59.62
2018-07-21T00:10:12.211Z,59.64
2018-07-21T00:11:19.074Z,59.64
2018-07-21T00:12:25.837Z,59.68
2018-07-21T00:13:32.610Z,59.75
2018-07-21T00:14:39.358Z,59.71
2018-07-21T00:15:46.235Z,59.68
2018-07-21T00:16:52.989Z,59.76
2018-07-21T00:17:59.747Z,59.79
2018-07-21T00:19:06.883Z,59.78
2018-07-21T00:20:13.786Z,59.80
2018-07-21T00:21:20.520Z,59.84
2018-07-21T00:22:27.322Z,59.78
2018-07-21T00:23:34.074Z,59.75
2018-07-21T00:24:40.853Z,59.75
2018-07-21T00:25:47.593Z,59.79
2018-07-21T00:26:54.370Z,59.87
2018-07-21T00:28:01.140Z,59.90
2018-07-21T00:29:07.994Z,59.88
2018-07-21T00:30:14.747Z,59.87
2018-07-21T00:31:21.526Z,59.89
2018-07-21T00:32:28.258Z,59.93
2018-07-21T00:33:35.110Z,59.94
2018-07-21T00:34:41.867Z,59.93
2018-07-21T00:35:48.635Z,60.02
2018-07-21T00:36:55.374Z,60.07
2018-07-21T00:38:02.188Z,60.08
2018-07-21T00:39:08.953Z,60.10
2018-07-21T00:40:15.760Z,60.08
2018-07-21T00:41:22.630Z,60.12
2018-07-21T00:42:29.369Z,60.11
2018-07-21T00:43:36.126Z,60.21
2018-07-21T00:44:42.864Z,60.28
2018-07-21T00:45:49.720Z,60.34
2018-07-21T00:46:56.476Z,60.42
2018-07-21T00:48:03.221Z,60.53
2018-07-21T00:49:10.255Z,60.55
2018-07-21T00:50:17.031Z,60.58
2018-07-21T00:51:23.782Z,60.63
2018-07-21T00:52:30.575Z,60.52
2018-07-21T00:53:37.289Z,60.55
2018-07-21T00:54:44.038Z,60.55
2018-07-21T00:55:50.826Z,60.60
2018-07-21T00:56:57.678Z,60.66
2018-07-21T00:58:04.414Z,60.68
2018-07-21T00:59:11.190Z,60.74
2018-07-21T01:00:17.922Z,60.78
2018-07-21T01:01:24.770Z,60.76
2018-07-21T01:02:31.641Z,60.72
2018-07-21T01:03:38.399Z,60.80
2018-07-21T01:04:45.280Z,60.80
2018-07-21T01:05:52.091Z,60.82
2018-07-21T01:06:59.178Z,60.87
2018-07-21T01:08:05.918Z,60.82
2018-07-21T01:09:12.663Z,60.87
2018-07-21T01:10:19.454Z,60.86
2018-07-21T01:11:26.218Z,60.86
2018-07-21T01:12:32.989Z,60.85
2018-07-21T01:13:39.741Z,60.96
2018-07-21T01:14:46.514Z,61.02
2018-07-21T01:15:53.334Z,61.06
2018-07-21T01:17:00.090Z,61.01
2018-07-21T01:18:06.944Z,60.94
2018-07-21T01:19:13.699Z,60.91
2018-07-21T01:20:20.619Z,60.93
2018-07-21T01:21:27.406Z,61.01
2018-07-21T01:22:34.214Z,61.04
2018-07-21T01:23:40.989Z,61.03
2018-07-21T01:24:47.722Z,61.06
2018-07-21T01:25:54.581Z,61.07
2018-07-21T01:27:01.332Z,61.06
2018-07-21T01:28:08.200Z,61.00
2018-07-21T01:29:14.958Z,60.97
2018-07-21T01:30:21.787Z,61.07
2018-07-21T01:31:28.574Z,61.07
2018-07-21T01:32:35.422Z,61.10
2018-07-21T01:33:42.181Z,61.14
2018-07-21T01:34:48.926Z,61.21
2018-07-21T01:35:55.679Z,61.24
2018-07-21T01:37:02.518Z,61.29
2018-07-21T01:38:09.286Z,61.30
2018-07-21T01:39:16.025Z,61.32
2018-07-21T01:40:22.901Z,61.35
2018-07-21T01:41:29.667Z,61.42
2018-07-21T01:42:36.414Z,61.41
2018-07-21T01:43:43.182Z,61.42
2018-07-21T01:44:49.926Z,61.44
2018-07-21T01:45:56.779Z,61.50
2018-07-21T01:47:03.876Z,61.54
2018-07-21T01:48:10.667Z,61.57
2018-07-21T01:49:17.410Z,61.60
2018-07-21T01:50:24.198Z,61.61
2018-07-21T01:51:31.019Z,61.61
2018-07-21T01:52:37.805Z,61.64
2018-07-21T01:53:44.557Z,61.62
2018-07-21T01:54:51.468Z,61.66
2018-07-21T01:55:58.234Z,61.68
2018-07-21T01:57:05.339Z,61.73
2018-07-21T01:58:12.125Z,61.74
2018-07-21T01:59:18.883Z,61.75
2018-07-21T02:00:25.763Z,61.81
2018-07-21T02:01:32.569Z,61.80
2018-07-21T02:02:39.582Z,61.80
2018-07-21T02:03:46.342Z,61.84
2018-07-21T02:04:53.510Z,61.82
2018-07-21T02:06:00.310Z,61.84
2018-07-21T02:07:07.137Z,61.85
2018-07-21T02:08:13.893Z,61.86
2018-07-21T02:09:20.658Z,61.91
2018-07-21T02:10:27.394Z,61.94
2018-07-21T02:11:34.271Z,62.03
2018-07-21T02:12:41.057Z,61.99
2018-07-21T02:13:47.835Z,61.98
2018-07-21T02:14:54.575Z,61.96
2018-07-21T02:16:01.398Z,61.99
2018-07-21T02:17:08.298Z,62.08
2018-07-21T02:18:15.030Z,62.11
2018-07-21T02:19:21.901Z,62.08
2018-07-21T02:20:28.643Z,62.13
2018-07-21T02:21:35.597Z,62.13
2018-07-21T02:22:42.378Z,62.12
2018-07-21T02:23:49.436Z,62.17
2018-07-21T02:24:56.178Z,62.26
2018-07-21T02:26:02.978Z,62.36
2018-07-21T02:27:09.803Z,62.35
2018-07-21T02:28:16.533Z,62.41
2018-07-21T02:29:23.287Z,62.46
2018-07-21T02:30:30.047Z,62.50
2018-07-21T02:31:36.894Z,62.41
2018-07-21T02:32:43.647Z,62.45
2018-07-21T02:33:50.398Z,62.42
2018-07-21T02:34:57.158Z,62.45
2018-07-21T02:36:03.975Z,62.47
2018-07-21T02:37:10.730Z,62.51
2018-07-21T02:38:17.489Z,62.55
2018-07-21T02:39:24.269Z,62.53
2018-07-21T02:40:31.065Z,62.50
2018-07-21T02:41:37.838Z,62.54
2018-07-21T02:42:44.642Z,62.53
2018-07-21T02:43:51.493Z,62.56
2018-07-21T02:44:58.265Z,62.58
2018-07-21T02:46:05.023Z,62.60
2018-07-21T02:47:11.806Z,62.59
2018-07-21T02:48:18.607Z,62.58
2018-07-21T02:49:25.373Z,62.62
2018-07-21T02:50:32.147Z,62.62
2018-07-21T02:51:38.901Z,62.58
2018-07-21T02:52:45.711Z,62.58
2018-07-21T02:53:52.470Z,62.62
2018-07-21T02:54:59.214Z,62.70
2018-07-21T02:56:05.996Z,62.71
2018-07-21T02:57:12.841Z,62.67
2018-07-21T02:58:19.588Z,62.65
2018-07-21T02:59:26.369Z,62.65
2018-07-21T03:00:33.271Z,62.70
2018-07-21T03:01:40.027Z,62.61
2018-07-21T03:02:46.798Z,62.60
2018-07-21T03:03:53.576Z,62.58
2018-07-21T03:05:00.376Z,62.58
2018-07-21T03:06:07.238Z,62.66
2018-07-21T03:07:13.978Z,62.67
2018-07-21T03:08:22.910Z,62.65
2018-07-21T03:09:27.670Z,62.56
2018-07-21T03:10:34.455Z,62.55
2018-07-21T03:11:41.255Z,62.63
2018-07-21T03:12:48.002Z,62.66
2018-07-21T03:13:54.851Z,62.67
2018-07-21T03:15:01.643Z,62.71
2018-07-21T03:16:08.536Z,62.71
2018-07-21T03:17:15.311Z,62.80
2018-07-21T03:18:22.100Z,62.73
2018-07-21T03:19:28.846Z,62.73
2018-07-21T03:20:35.610Z,62.71
2018-07-21T03:21:42.382Z,62.71
2018-07-21T03:22:49.166Z,62.80
2018-07-21T03:23:55.995Z,62.74
2018-07-21T03:25:02.767Z,62.71
2018-07-21T03:26:09.650Z,62.68
2018-07-21T03:27:16.778Z,62.70
2018-07-21T03:28:23.515Z,62.76
2018-07-21T03:29:30.282Z,62.73
2018-07-21T03:30:37.068Z,62.71
2018-07-21T03:31:43.892Z,62.74
2018-07-21T03:32:50.890Z,62.81
2018-07-21T03:33:57.670Z,62.82
2018-07-21T03:35:04.413Z,62.78
2018-07-21T03:36:11.204Z,62.84
2018-07-21T03:37:17.954Z,62.83
2018-07-21T03:38:24.761Z,62.88
2018-07-21T03:39:31.514Z,62.92
2018-07-21T03:40:38.322Z,62.93
2018-07-21T03:41:45.035Z,62.95
2018-07-21T03:42:51.863Z,62.91
2018-07-21T03:43:58.612Z,62.97
2018-07-21T03:45:05.377Z,62.99
2018-07-21T03:46:12.130Z,63.04
2018-07-21T03:47:18.947Z,62.98
2018-07-21T03:48:25.702Z,62.96
2018-07-21T03:49:32.435Z,62.96
2018-07-21T03:50:39.205Z,63.05
2018-07-21T03:51:45.958Z,63.14
2018-07-21T03:52:52.733Z,63.12
2018-07-21T03:53:59.494Z,63.07
2018-07-21T03:55:06.267Z,63.03
2018-07-21T03:56:13.014Z,63.03
2018-07-21T03:57:19.881Z,62.99
2018-07-21T03:58:26.614Z,63.04
2018-07-21T03:59:33.361Z,63.07
2018-07-21T04:00:40.152Z,63.08
2018-07-21T04:01:47.003Z,63.09
2018-07-21T04:02:53.807Z,63.14
2018-07-21T04:04:00.621Z,63.24
2018-07-21T04:05:07.490Z,63.20
2018-07-21T04:06:14.278Z,63.21
2018-07-21T04:07:21.062Z,63.25
2018-07-21T04:08:27.801Z,63.28
2018-07-21T04:09:34.594Z,63.25
2018-07-21T04:10:41.335Z,63.31
2018-07-21T04:11:48.153Z,63.34
2018-07-21T04:12:54.904Z,63.32
2018-07-21T04:14:01.721Z,63.26
2018-07-21T04:15:08.617Z,63.35
2018-07-21T04:16:15.359Z,63.36
2018-07-21T04:17:22.173Z,63.35
2018-07-21T04:18:29.111Z,63.43
2018-07-21T04:19:35.938Z,63.47
2018-07-21T04:20:42.677Z,63.48
2018-07-21T04:21:49.462Z,63.43
2018-07-21T04:22:56.216Z,63.44
2018-07-21T04:24:03.063Z,63.47
2018-07-21T04:25:09.956Z,63.51
2018-07-21T04:26:16.795Z,63.61
2018-07-21T04:27:23.573Z,63.53
2018-07-21T04:28:30.330Z,63.55
2018-07-21T04:29:37.081Z,63.53
2018-07-21T04:30:43.902Z,63.57
2018-07-21T04:31:50.774Z,63.59
2018-07-21T04:32:57.517Z,63.54
2018-07-21T04:34:04.327Z,63.50
2018-07-21T04:35:11.386Z,63.50
2018-07-21T04:36:18.142Z,63.45
2018-07-21T04:37:24.913Z,63.53
2018-07-21T04:38:31.704Z,63.53
2018-07-21T04:39:38.586Z,63.48
2018-07-21T04:40:45.314Z,63.58
2018-07-21T04:41:52.087Z,63.64
2018-07-21T04:42:58.866Z,63.68
2018-07-21T04:44:05.662Z,63.80
2018-07-21T04:45:12.590Z,63.87
2018-07-21T04:46:19.433Z,63.98
2018-07-21T04:47:26.210Z,64.13
2018-07-21T04:48:32.961Z,64.20
2018-07-21T04:49:39.714Z,64.26
2018-07-21T04:50:46.490Z,64.34
2018-07-21T04:51:53.333Z,64.36
2018-07-21T04:53:00.122Z,64.40
2018-07-21T04:54:06.931Z,64.49
2018-07-21T04:55:13.704Z,64.58
2018-07-21T04:56:20.458Z,64.65
2018-07-21T04:57:27.219Z,64.80
2018-07-21T04:58:34.038Z,64.90
2018-07-21T04:59:40.805Z,65.02
2018-07-21T05:00:47.672Z,65.11
2018-07-21T05:01:54.350Z,65.19
2018-07-21T05:03:01.151Z,65.31
2018-07-21T05:04:07.969Z,65.37
2018-07-21T05:05:14.978Z,65.36
2018-07-21T05:06:21.718Z,65.43
2018-07-21T05:07:28.576Z,65.50
2018-07-21T05:08:35.403Z,65.74
2018-07-21T05:09:42.159Z,65.84
2018-07-21T05:10:49.190Z,66.04
2018-07-21T05:11:55.935Z,66.20
2018-07-21T05:13:02.722Z,66.33
2018-07-21T05:14:09.650Z,66.41
2018-07-21T05:15:16.418Z,66.52
2018-07-21T05:16:23.174Z,66.63
2018-07-21T05:17:30.096Z,66.66
2018-07-21T05:18:36.861Z,66.64
2018-07-21T05:19:43.617Z,66.83
2018-07-21T05:20:50.375Z,66.93
2018-07-21T05:21:57.198Z,67.08
2018-07-21T05:23:04.012Z,67.35
2018-07-21T05:24:10.762Z,67.42
2018-07-21T05:25:17.505Z,67.52
2018-07-21T05:26:24.281Z,67.66
2018-07-21T05:27:31.041Z,67.73
2018-07-21T05:28:37.818Z,67.78
2018-07-21T05:29:44.563Z,67.82
2018-07-21T05:30:51.361Z,67.91
2018-07-21T05:31:58.122Z,67.93
2018-07-21T05:33:04.924Z,67.92
2018-07-21T05:34:11.807Z,68.06
2018-07-21T05:35:18.554Z,68.14
2018-07-21T05:36:25.314Z,68.31
2018-07-21T05:37:32.071Z,68.54
2018-07-21T05:38:38.889Z,68.69
2018-07-21T05:39:45.638Z,68.74
2018-07-21T05:40:52.379Z,68.67
2018-07-21T05:41:59.130Z,68.76
2018-07-21T05:43:05.978Z,68.90
2018-07-21T05:44:12.786Z,69.01
2018-07-21T05:45:19.570Z,68.97
2018-07-21T05:46:26.410Z,69.12
2018-07-21T05:47:33.182Z,69.19
2018-07-21T05:48:40.218Z,69.26
2018-07-21T05:49:46.965Z,69.37
2018-07-21T05:50:53.724Z,69.42
2018-07-21T05:52:00.640Z,69.56
2018-07-21T05:53:07.542Z,69.72
2018-07-21T05:54:14.262Z,69.71
2018-07-21T05:55:21.058Z,69.64
2018-07-21T05:56:27.922Z,69.62
2018-07-21T05:57:34.859Z,69.67
2018-07-21T05:58:41.638Z,69.66
2018-07-21T05:59:48.489Z,69.82
2018-07-21T06:00:55.350Z,69.93
2018-07-21T06:02:02.134Z,70.05
2018-07-21T06:03:09.189Z,70.00
2018-07-21T06:04:16.030Z,70.05
2018-07-21T06:05:22.866Z,70.05
2018-07-21T06:06:29.620Z,70.14
2018-07-21T06:07:36.394Z,70.15
2018-07-21T06:08:43.210Z,70.17
2018-07-21T06:09:49.986Z,70.17
2018-07-21T06:10:56.780Z,70.17
2018-07-21T06:12:03.523Z,70.22
2018-07-21T06:13:10.423Z,70.18
2018-07-21T06:14:17.256Z,70.23
2018-07-21T06:15:24.012Z,70.34
2018-07-21T06:16:30.874Z,70.46
2018-07-21T06:17:37.714Z,70.49
2018-07-21T06:18:44.559Z,70.59
2018-07-21T06:19:51.338Z,70.62
2018-07-21T06:20:58.114Z,70.70
2018-07-21T06:22:04.943Z,70.63
2018-07-21T06:23:11.775Z,70.59
2018-07-21T06:24:18.580Z,70.55
2018-07-21T06:25:25.354Z,70.56
2018-07-21T06:26:32.214Z,70.54
2018-07-21T06:27:38.998Z,70.57
2018-07-21T06:28:45.876Z,70.57
2018-07-21T06:29:52.674Z,70.51
2018-07-21T06:30:59.434Z,70.53
2018-07-21T06:32:06.178Z,70.56
2018-07-21T06:33:13.131Z,70.63
2018-07-21T06:34:19.923Z,70.57
2018-07-21T06:35:26.738Z,70.64
2018-07-21T06:36:33.588Z,70.63
2018-07-21T06:37:40.348Z,70.57
2018-07-21T06:38:47.407Z,70.50
2018-07-21T06:39:54.154Z,70.49
2018-07-21T06:41:00.979Z,70.47
2018-07-21T06:42:07.822Z,70.48
2018-07-21T06:43:14.604Z,70.54
2018-07-21T06:44:21.408Z,70.61
2018-07-21T06:45:28.242Z,70.70
2018-07-21T06:46:35.018Z,70.74
2018-07-21T06:47:41.819Z,70.75
2018-07-21T06:48:48.682Z,70.77
2018-07-21T06:49:55.474Z,70.76
2018-07-21T06:51:02.238Z,70.77
2018-07-21T06:52:09.090Z,70.75
2018-07-21T06:53:15.855Z,70.67
2018-07-21T06:54:22.710Z,70.70
2018-07-21T06:55:29.546Z,70.65
2018-07-21T06:56:36.356Z,70.69
2018-07-21T06:57:43.088Z,70.74
2018-07-21T06:58:50.166Z,70.82
2018-07-21T06:59:33.627Z,71.09
2018-07-21T07:00:40.383Z,71.10
2018-07-21T07:01:47.214Z,71.25
2018-07-21T07:02:54.001Z,71.24
2018-07-21T07:04:00.778Z,71.14
2018-07-21T07:05:07.780Z,71.11
2018-07-21T07:06:14.586Z,71.02
2018-07-21T07:07:21.337Z,71.17
2018-07-21T07:08:28.094Z,71.20
2018-07-21T07:09:34.867Z,71.27
2018-07-21T07:10:41.597Z,71.23
2018-07-21T07:11:48.360Z,71.17
2018-07-21T07:12:55.110Z,71.14
2018-07-21T07:14:01.962Z,70.98
2018-07-21T07:15:10.031Z,70.90
2018-07-21T07:16:15.802Z,70.88
2018-07-21T07:17:22.695Z,70.68
2018-07-21T07:18:29.579Z,70.62
2018-07-21T07:19:36.482Z,70.53
2018-07-21T07:20:43.307Z,70.57
2018-07-21T07:21:50.078Z,70.55
2018-07-21T07:22:56.818Z,70.61
2018-07-21T07:24:03.622Z,70.60
2018-07-21T07:25:10.379Z,70.54
2018-07-21T07:26:17.211Z,70.59
2018-07-21T07:27:24.370Z,70.61
2018-07-21T07:28:31.106Z,70.57
2018-07-21T07:29:37.985Z,70.58
2018-07-21T07:30:44.790Z,70.64
2018-07-21T07:31:51.622Z,70.56
2018-07-21T07:32:58.410Z,70.50
2018-07-21T07:34:05.395Z,70.52
2018-07-21T07:35:12.256Z,70.59
2018-07-21T07:36:19.019Z,70.55
2018-07-21T07:37:25.781Z,70.53
2018-07-21T07:38:32.666Z,70.47
2018-07-21T07:39:39.454Z,70.34
2018-07-21T07:40:46.211Z,70.36
2018-07-21T07:41:53.086Z,70.38
2018-07-21T07:42:59.857Z,70.33
2018-07-21T07:44:06.623Z,70.31
2018-07-21T07:45:13.537Z,70.33
2018-07-21T07:46:20.317Z,70.23
2018-07-21T07:47:27.091Z,70.25
2018-07-21T07:48:33.972Z,70.50
2018-07-21T07:49:40.756Z,70.43
2018-07-21T07:50:47.558Z,70.30
2018-07-21T07:51:54.406Z,70.30
2018-07-21T07:53:01.205Z,70.37
2018-07-21T07:54:08.027Z,70.37
2018-07-21T07:55:14.836Z,70.22
2018-07-21T07:56:21.627Z,70.22
2018-07-21T07:57:28.374Z,70.29
2018-07-21T07:58:35.114Z,70.19
2018-07-21T07:59:41.936Z,70.23
2018-07-21T08:00:48.663Z,70.25
2018-07-21T08:01:55.427Z,70.15
2018-07-21T08:03:02.197Z,69.94
2018-07-21T08:04:09.152Z,69.71
2018-07-21T08:05:16.008Z,69.63
2018-07-21T08:06:22.788Z,69.63
2018-07-21T08:07:29.622Z,69.72
2018-07-21T08:08:36.411Z,69.86
2018-07-21T08:09:43.196Z,69.84
2018-07-21T08:10:49.938Z,69.86
2018-07-21T08:11:56.724Z,69.80
2018-07-21T08:13:03.504Z,69.75
2018-07-21T08:14:10.314Z,69.69
2018-07-21T08:15:17.056Z,69.65
2018-07-21T08:16:24.183Z,69.72
2018-07-21T08:17:30.926Z,69.51
2018-07-21T08:18:37.779Z,69.58
2018-07-21T08:19:44.562Z,69.50
2018-07-21T08:20:51.318Z,69.35
2018-07-21T08:21:58.194Z,69.44
2018-07-21T08:23:04.971Z,69.58
2018-07-21T08:24:12.007Z,69.79
2018-07-21T08:25:18.793Z,69.46
2018-07-21T08:26:25.630Z,69.40
2018-07-21T08:27:32.414Z,69.66
2018-07-21T08:28:39.421Z,69.97
2018-07-21T08:29:46.235Z,69.93
2018-07-21T08:30:53.035Z,69.88
2018-07-21T08:32:00.085Z,69.98
2018-07-21T08:33:06.866Z,69.91
2018-07-21T08:34:13.616Z,69.97
2018-07-21T08:35:20.442Z,69.98
2018-07-21T08:36:27.200Z,69.94
2018-07-21T08:37:33.981Z,69.79
2018-07-21T08:38:40.878Z,69.47
2018-07-21T08:39:47.685Z,69.36
2018-07-21T08:40:54.459Z,69.26
2018-07-21T08:42:01.298Z,69.03
2018-07-21T08:43:08.058Z,68.88
2018-07-21T08:44:14.823Z,68.87
2018-07-21T08:45:21.591Z,68.80
2018-07-21T08:46:28.383Z,68.67
2018-07-21T08:47:35.177Z,68.61
2018-07-21T08:48:41.959Z,68.61
2018-07-21T08:49:48.850Z,68.63
2018-07-21T08:50:55.603Z,68.67
2018-07-21T08:52:02.470Z,68.70
2018-07-21T08:53:09.267Z,68.61
2018-07-21T08:54:15.995Z,68.84
2018-07-21T08:55:22.778Z,68.90
2018-07-21T08:56:29.511Z,68.97
2018-07-21T08:57:36.367Z,69.00
2018-07-21T08:58:43.116Z,69.03
2018-07-21T08:59:49.921Z,68.91
2018-07-21T09:00:56.663Z,68.67
2018-07-21T09:02:03.466Z,68.60
2018-07-21T09:03:10.290Z,68.52
2018-07-21T09:04:17.043Z,68.56
2018-07-21T09:05:23.863Z,68.75
2018-07-21T09:06:30.603Z,68.76
2018-07-21T09:07:37.308Z,68.72
2018-07-21T09:08:44.061Z,68.76
2018-07-21T09:09:50.833Z,68.64
2018-07-21T09:10:57.602Z,68.41
2018-07-21T09:12:04.342Z,68.47
2018-07-21T09:13:11.146Z,68.43
2018-07-21T09:14:18.020Z,68.43
2018-07-21T09:15:24.790Z,68.43
2018-07-21T09:16:31.589Z,68.31
2018-07-21T09:17:38.452Z,68.36
2018-07-21T09:18:45.219Z,68.34
2018-07-21T09:19:51.967Z,68.19
2018-07-21T09:20:58.737Z,68.31
2018-07-21T09:22:05.499Z,68.40
2018-07-21T09:23:12.307Z,68.17
2018-07-21T09:24:19.083Z,68.12
2018-07-21T09:25:25.926Z,68.17
2018-07-21T09:26:32.690Z,68.09
2018-07-21T09:27:39.470Z,68.20
2018-07-21T09:28:46.194Z,68.18
2018-07-21T09:29:53.015Z,68.44
2018-07-21T09:30:59.762Z,68.64
2018-07-21T09:32:06.542Z,68.63
2018-07-21T09:33:13.290Z,68.51
2018-07-21T09:34:20.074Z,68.56
2018-07-21T09:35:26.832Z,68.59
2018-07-21T09:36:33.619Z,68.88
2018-07-21T09:37:40.334Z,68.94
2018-07-21T09:38:47.148Z,68.72
2018-07-21T09:39:53.910Z,68.61
2018-07-21T09:41:00.659Z,68.77
2018-07-21T09:42:07.579Z,68.58
2018-07-21T09:43:14.384Z,68.49
2018-07-21T09:44:21.127Z,68.62
2018-07-21T09:45:28.019Z,68.52
2018-07-21T09:46:34.793Z,68.56
2018-07-21T09:47:41.573Z,68.54
2018-07-21T09:48:48.327Z,68.40
2018-07-21T09:49:55.120Z,68.39
2018-07-21T09:51:01.914Z,68.57
2018-07-21T09:52:08.875Z,68.65
2018-07-21T09:53:15.964Z,68.74
2018-07-21T09:54:22.809Z,69.02
2018-07-21T09:55:29.618Z,68.73
2018-07-21T09:56:36.471Z,68.72
2018-07-21T09:57:43.198Z,68.57
2018-07-21T09:58:49.926Z,68.62
2018-07-21T09:59:56.742Z,68.62
2018-07-21T10:01:03.540Z,68.78
2018-07-21T10:02:10.308Z,68.57
2018-07-21T10:03:17.136Z,68.34
2018-07-21T10:04:23.987Z,68.20
2018-07-21T10:05:30.851Z,67.86
2018-07-21T10:06:37.636Z,67.80
2018-07-21T10:07:44.392Z,68.02
2018-07-21T10:08:51.146Z,68.03
2018-07-21T10:09:57.938Z,68.02
2018-07-21T10:11:04.886Z,67.84
2018-07-21T10:12:11.662Z,67.80
2018-07-21T10:13:18.414Z,67.84
2018-07-21T10:14:25.246Z,67.73
2018-07-21T10:15:32.061Z,67.54
2018-07-21T10:16:38.819Z,67.72
2018-07-21T10:17:45.678Z,67.80
2018-07-21T10:18:52.421Z,67.67
2018-07-21T10:19:59.266Z,67.26
2018-07-21T10:21:06.126Z,67.19
2018-07-21T10:22:12.955Z,66.90
2018-07-21T10:23:19.687Z,66.85
2018-07-21T10:24:26.535Z,66.43
2018-07-21T10:25:33.359Z,66.26
2018-07-21T10:26:40.318Z,66.01
2018-07-21T10:27:47.254Z,65.81
2018-07-21T10:28:54.234Z,65.60
2018-07-21T10:30:01.277Z,65.61
2018-07-21T10:31:08.173Z,65.48
2018-07-21T10:32:15.050Z,65.56
2018-07-21T10:33:21.853Z,65.43
2018-07-21T10:34:28.667Z,65.54
2018-07-21T10:35:35.482Z,65.54
2018-07-21T10:36:42.295Z,65.39
2018-07-21T10:37:49.243Z,65.25
2018-07-21T10:38:56.022Z,64.65
2018-07-21T10:40:02.810Z,64.46
2018-07-21T10:41:09.695Z,64.11
2018-07-21T10:42:16.463Z,63.85
2018-07-21T10:43:23.215Z,63.90
2018-07-21T10:44:29.962Z,63.81
2018-07-21T10:45:36.739Z,63.63
2018-07-21T10:46:43.516Z,63.58
2018-07-21T10:47:50.254Z,63.45
2018-07-21T10:48:57.022Z,63.29
2018-07-21T10:50:03.877Z,63.32
2018-07-21T10:51:10.639Z,63.30
2018-07-21T10:52:17.310Z,63.44
2018-07-21T10:53:24.082Z,63.14
2018-07-21T10:54:30.882Z,63.14
2018-07-21T10:55:37.661Z,62.94
2018-07-21T10:56:44.407Z,62.90
2018-07-21T10:57:51.182Z,62.95
2018-07-21T10:58:57.974Z,63.25
2018-07-21T11:00:04.764Z,63.51
2018-07-21T11:01:11.572Z,63.47
2018-07-21T11:02:18.439Z,63.19
2018-07-21T11:03:25.481Z,63.20
2018-07-21T11:04:32.306Z,63.07
2018-07-21T11:05:39.191Z,63.00
2018-07-21T11:06:45.993Z,62.85
2018-07-21T11:07:52.867Z,62.62
2018-07-21T11:08:59.866Z,62.62
2018-07-21T11:10:06.935Z,62.46
2018-07-21T11:11:13.814Z,62.46
2018-07-21T11:12:20.554Z,62.31
2018-07-21T11:13:27.353Z,62.42
2018-07-21T11:14:34.146Z,62.22
2018-07-21T11:15:40.978Z,61.92
2018-07-21T11:16:47.836Z,61.84
2018-07-21T11:17:54.602Z,61.65
2018-07-21T11:19:01.344Z,61.49
2018-07-21T11:20:08.511Z,61.42
2018-07-21T11:21:15.393Z,61.44
2018-07-21T11:22:22.243Z,61.48
2018-07-21T11:23:29.162Z,61.55
2018-07-21T11:24:35.930Z,61.46
2018-07-21T11:25:42.732Z,61.35
2018-07-21T11:26:49.574Z,61.20
2018-07-21T11:27:56.638Z,61.02
2018-07-21T11:29:03.407Z,60.91
2018-07-21T11:30:10.239Z,60.90
2018-07-21T11:31:17.206Z,60.84
2018-07-21T11:32:24.005Z,60.82
2018-07-21T11:33:31.015Z,60.59
2018-07-21T11:34:37.967Z,60.55
2018-07-21T11:35:44.943Z,60.51
2018-07-21T11:36:51.550Z,60.41
2018-07-21T11:37:58.399Z,60.33
2018-07-21T11:39:05.184Z,60.51
2018-07-21T11:40:12.331Z,60.51
2018-07-21T11:41:19.146Z,60.49
2018-07-21T11:42:25.999Z,60.46
2018-07-21T11:43:32.775Z,60.53
2018-07-21T11:44:39.577Z,60.79
2018-07-21T11:45:46.374Z,61.08
2018-07-21T11:46:53.227Z,61.22
2018-07-21T11:47:59.982Z,61.45
2018-07-21T11:49:06.814Z,61.55
2018-07-21T11:50:13.529Z,61.60
2018-07-21T11:51:20.339Z,61.83
2018-07-21T11:52:27.094Z,61.88
2018-07-21T11:53:34.294Z,61.81
2018-07-21T11:54:40.558Z,61.72
2018-07-21T11:55:47.422Z,61.66
2018-07-21T11:56:54.347Z,61.69
2018-07-21T11:58:01.054Z,61.66
2018-07-21T11:59:07.922Z,61.66
2018-07-21T12:00:14.618Z,61.74
2018-07-21T12:01:21.456Z,61.87
2018-07-21T12:02:29.307Z,61.78
2018-07-21T12:03:35.606Z,61.69
2018-07-21T12:04:42.337Z,61.81
2018-07-21T12:05:49.271Z,61.86
2018-07-21T12:06:56.043Z,61.96
2018-07-21T12:08:02.799Z,61.88
2018-07-21T12:09:09.666Z,61.88
2018-07-21T12:10:16.775Z,61.91
2018-07-21T12:11:23.193Z,61.93
2018-07-21T12:12:30.105Z,61.98
2018-07-21T12:13:37.316Z,61.87
2018-07-21T12:14:44.014Z,61.81
2018-07-21T12:15:50.872Z,61.67
2018-07-21T12:16:57.704Z,61.51
2018-07-21T12:18:04.515Z,61.49
2018-07-21T12:19:11.591Z,61.53
2018-07-21T12:20:18.462Z,61.43
2018-07-21T12:21:25.286Z,61.25
2018-07-21T12:22:32.036Z,61.07
2018-07-21T12:23:38.850Z,61.03
2018-07-21T12:24:45.731Z,60.96
2018-07-21T12:25:52.526Z,60.88
2018-07-21T12:26:59.378Z,60.89
2018-07-21T12:28:06.186Z,60.74
2018-07-21T12:29:12.965Z,60.72
2018-07-21T12:30:19.704Z,60.84
2018-07-21T12:31:26.485Z,60.96
2018-07-21T12:32:33.378Z,61.03
2018-07-21T12:33:40.162Z,61.08
2018-07-21T12:34:47.110Z,61.05
2018-07-21T12:35:53.867Z,61.01
2018-07-21T12:37:00.626Z,60.86
2018-07-21T12:38:07.483Z,60.65
2018-07-21T12:39:14.191Z,60.48
2018-07-21T12:40:20.971Z,60.45
2018-07-21T12:41:27.917Z,60.43
2018-07-21T12:42:34.721Z,60.46
2018-07-21T12:43:41.474Z,60.36
2018-07-21T12:44:48.272Z,60.21
2018-07-21T12:45:55.056Z,60.28
2018-07-21T12:47:01.807Z,60.22
2018-07-21T12:48:08.599Z,60.07
2018-07-21T12:49:15.324Z,59.98
2018-07-21T12:50:22.104Z,60.03
2018-07-21T12:51:28.887Z,59.92
2018-07-21T12:52:35.745Z,59.78
2018-07-21T12:53:42.747Z,59.75
2018-07-21T12:54:49.727Z,59.77
2018-07-21T12:55:56.683Z,59.60
2018-07-21T12:57:03.563Z,59.61
2018-07-21T12:58:10.350Z,59.65
2018-07-21T12:59:17.323Z,59.71
2018-07-21T13:00:24.095Z,59.63
2018-07-21T13:01:30.892Z,59.54
2018-07-21T13:02:37.737Z,59.62
2018-07-21T13:03:44.532Z,59.74
2018-07-21T13:04:51.328Z,59.18
2018-07-21T13:05:58.427Z,58.91
2018-07-21T13:07:04.914Z,58.71
2018-07-21T13:08:12.127Z,58.46
2018-07-21T13:09:18.898Z,58.39
2018-07-21T13:10:25.755Z,58.35
2018-07-21T13:11:32.622Z,58.41
2018-07-21T13:12:39.575Z,58.32
2018-07-21T13:13:46.404Z,58.32
2018-07-21T13:14:53.242Z,58.38
2018-07-21T13:15:59.983Z,58.47
2018-07-21T13:17:06.781Z,58.52
2018-07-21T13:18:13.569Z,58.37
2018-07-21T13:19:20.478Z,58.41
2018-07-21T13:20:27.266Z,58.27
2018-07-21T13:21:34.187Z,58.04
2018-07-21T13:22:41.146Z,57.88
2018-07-21T13:23:47.950Z,57.94
2018-07-21T13:24:54.714Z,58.01
2018-07-21T13:26:01.471Z,57.90
2018-07-21T13:27:08.380Z,57.17
2018-07-21T13:28:15.133Z,56.93
2018-07-21T13:29:21.885Z,56.51
2018-07-21T13:30:28.692Z,56.27
2018-07-21T13:31:35.563Z,55.91
2018-07-21T13:32:42.343Z,55.65
2018-07-21T13:33:49.094Z,55.35
2018-07-21T13:34:55.914Z,55.10
2018-07-21T13:36:02.681Z,54.88
2018-07-21T13:37:09.491Z,54.52
2018-07-21T13:38:16.366Z,54.33
2018-07-21T13:39:23.134Z,54.16
2018-07-21T13:40:29.874Z,53.94
2018-07-21T13:41:36.742Z,53.76
2018-07-21T13:42:43.554Z,53.27
2018-07-21T13:43:50.289Z,53.22
2018-07-21T13:44:57.177Z,52.71
2018-07-21T13:46:03.950Z,52.36
2018-07-21T13:47:10.724Z,52.24
2018-07-21T13:48:17.482Z,52.04
2018-07-21T13:49:24.260Z,51.49
2018-07-21T13:50:30.993Z,51.30
2018-07-21T13:51:37.717Z,50.88
2018-07-21T13:52:44.565Z,50.61
2018-07-21T13:53:51.380Z,50.32
2018-07-21T13:54:58.411Z,50.29
2018-07-21T13:56:05.154Z,50.10
2018-07-21T13:57:12.047Z,50.12
2018-07-21T13:58:18.914Z,50.09
2018-07-21T13:59:25.661Z,50.26
2018-07-21T14:00:32.391Z,50.34
2018-07-21T14:01:39.176Z,50.49
2018-07-21T14:02:46.058Z,50.67
2018-07-21T14:03:52.801Z,50.82
2018-07-21T14:04:59.582Z,50.98
2018-07-21T14:06:06.537Z,51.08
2018-07-21T14:07:13.359Z,51.15
2018-07-21T14:08:20.147Z,51.14
2018-07-21T14:09:27.046Z,51.32
2018-07-21T14:10:33.798Z,51.38
2018-07-21T14:11:40.560Z,51.47
2018-07-21T14:12:47.410Z,51.63
2018-07-21T14:13:54.151Z,51.77
2018-07-21T14:15:00.963Z,51.87
2018-07-21T14:16:08.035Z,51.93
2018-07-21T14:17:14.781Z,52.08
2018-07-21T14:18:21.658Z,52.27
2018-07-21T14:19:28.450Z,52.49